sensor_id;sensor_type;location;lat;lon;timestamp;P1;durP1;ratioP1;P2;durP2;ratioP2
35612;SDS011;22054;51.646;7.078;2022-07-23T00:00:50;11.80;;;7.32;;
35612;SDS011;22054;51.646;7.078;2022-07-23T00:03:15;11.38;;;8.43;;
35612;SDS011;22054;51.646;7.078;2022-07-23T00:05:41;10.52;;;7.68;;
35612;SDS011;22054;51.646;7.078;2022-07-23T00:08:07;18.05;;;8.73;;
35612;SDS011;22054;51.646;7.078;2022-07-23T00:10:33;9.18;;;7.75;;
35612;SDS011;22054;51.646;7.078;2022-07-23T00:12:59;8.80;;;7.10;;
35612;SDS011;22054;51.646;7.078;2022-07-23T00:15:25;11.02;;;7.70;;
35612;SDS011;22054;51.646;7.078;2022-07-23T00:17:51;10.68;;;8.75;;
35612;SDS011;22054;51.646;7.078;2022-07-23T00:20:17;13.20;;;8.25;;
35612;SDS011;22054;51.646;7.078;2022-07-23T00:22:50;10.65;;;8.32;;
35612;SDS011;22054;51.646;7.078;2022-07-23T00:25:18;12.90;;;8.40;;
35612;SDS011;22054;51.646;7.078;2022-07-23T00:27:48;12.07;;;7.53;;
35612;SDS011;22054;51.646;7.078;2022-07-23T00:30:14;12.73;;;8.15;;
35612;SDS011;22054;51.646;7.078;2022-07-23T00:32:49;13.30;;;7.97;;
35612;SDS011;22054;51.646;7.078;2022-07-23T00:35:22;10.57;;;7.93;;
35612;SDS011;22054;51.646;7.078;2022-07-23T00:37:50;11.48;;;7.57;;
35612;SDS011;22054;51.646;7.078;2022-07-23T00:40:16;17.90;;;8.60;;
35612;SDS011;22054;51.646;7.078;2022-07-23T00:42:42;10.05;;;8.13;;
35612;SDS011;22054;51.646;7.078;2022-07-23T00:45:08;14.60;;;8.40;;
35612;SDS011;22054;51.646;7.078;2022-07-23T00:47:34;11.57;;;8.60;;
35612;SDS011;22054;51.646;7.078;2022-07-23T00:50:01;13.20;;;8.60;;
35612;SDS011;22054;51.646;7.078;2022-07-23T00:52:29;11.47;;;7.90;;
35612;SDS011;22054;51.646;7.078;2022-07-23T00:54:56;12.52;;;7.45;;
35612;SDS011;22054;51.646;7.078;2022-07-23T00:57:22;13.20;;;8.23;;
35612;SDS011;22054;51.646;7.078;2022-07-23T00:59:48;12.25;;;8.27;;
35612;SDS011;22054;51.646;7.078;2022-07-23T01:02:13;13.02;;;8.30;;
35612;SDS011;22054;51.646;7.078;2022-07-23T01:04:39;16.25;;;8.10;;
35612;SDS011;22054;51.646;7.078;2022-07-23T01:07:05;13.75;;;8.77;;
35612;SDS011;22054;51.646;7.078;2022-07-23T01:09:32;12.60;;;9.32;;
35612;SDS011;22054;51.646;7.078;2022-07-23T01:11:57;15.23;;;9.18;;
35612;SDS011;22054;51.646;7.078;2022-07-23T01:14:24;15.32;;;9.52;;
35612;SDS011;22054;51.646;7.078;2022-07-23T01:16:51;14.73;;;9.40;;
35612;SDS011;22054;51.646;7.078;2022-07-23T01:19:17;12.00;;;9.38;;
35612;SDS011;22054;51.646;7.078;2022-07-23T01:21:47;9.48;;;8.10;;
35612;SDS011;22054;51.646;7.078;2022-07-23T01:24:16;10.90;;;9.10;;
35612;SDS011;22054;51.646;7.078;2022-07-23T01:26:44;11.48;;;9.20;;
35612;SDS011;22054;51.646;7.078;2022-07-23T01:29:13;9.95;;;7.68;;
35612;SDS011;22054;51.646;7.078;2022-07-23T01:31:40;12.07;;;7.72;;
35612;SDS011;22054;51.646;7.078;2022-07-23T01:34:06;12.20;;;8.55;;
35612;SDS011;22054;51.646;7.078;2022-07-23T01:36:33;11.13;;;8.57;;
35612;SDS011;22054;51.646;7.078;2022-07-23T01:38:59;12.18;;;9.00;;
35612;SDS011;22054;51.646;7.078;2022-07-23T01:41:25;13.88;;;9.43;;
35612;SDS011;22054;51.646;7.078;2022-07-23T01:43:51;13.85;;;8.23;;
35612;SDS011;22054;51.646;7.078;2022-07-23T01:46:17;11.98;;;8.68;;
35612;SDS011;22054;51.646;7.078;2022-07-23T01:48:43;8.50;;;7.68;;
35612;SDS011;22054;51.646;7.078;2022-07-23T01:51:09;11.15;;;7.85;;
35612;SDS011;22054;51.646;7.078;2022-07-23T01:53:35;13.45;;;8.88;;
35612;SDS011;22054;51.646;7.078;2022-07-23T01:56:00;13.45;;;9.05;;
35612;SDS011;22054;51.646;7.078;2022-07-23T01:58:27;11.55;;;9.07;;
35612;SDS011;22054;51.646;7.078;2022-07-23T02:00:53;11.32;;;8.63;;
35612;SDS011;22054;51.646;7.078;2022-07-23T02:03:19;10.95;;;8.45;;
35612;SDS011;22054;51.646;7.078;2022-07-23T02:05:45;15.30;;;8.65;;
35612;SDS011;22054;51.646;7.078;2022-07-23T02:08:11;10.00;;;8.52;;
35612;SDS011;22054;51.646;7.078;2022-07-23T02:10:37;13.27;;;9.10;;
35612;SDS011;22054;51.646;7.078;2022-07-23T02:13:02;14.80;;;10.13;;
35612;SDS011;22054;51.646;7.078;2022-07-23T02:15:28;11.13;;;9.05;;
35612;SDS011;22054;51.646;7.078;2022-07-23T02:17:54;10.30;;;9.00;;
35612;SDS011;22054;51.646;7.078;2022-07-23T02:20:20;12.57;;;9.15;;
35612;SDS011;22054;51.646;7.078;2022-07-23T02:22:46;10.38;;;8.70;;
35612;SDS011;22054;51.646;7.078;2022-07-23T02:25:12;13.68;;;8.27;;
35612;SDS011;22054;51.646;7.078;2022-07-23T02:27:38;11.82;;;8.80;;
35612;SDS011;22054;51.646;7.078;2022-07-23T02:30:04;11.15;;;10.00;;
35612;SDS011;22054;51.646;7.078;2022-07-23T02:32:31;10.95;;;9.45;;
35612;SDS011;22054;51.646;7.078;2022-07-23T02:34:57;11.80;;;9.68;;
35612;SDS011;22054;51.646;7.078;2022-07-23T02:37:23;14.07;;;9.65;;
35612;SDS011;22054;51.646;7.078;2022-07-23T02:39:48;13.07;;;10.05;;
35612;SDS011;22054;51.646;7.078;2022-07-23T02:42:14;15.65;;;9.15;;
35612;SDS011;22054;51.646;7.078;2022-07-23T02:44:40;12.23;;;9.57;;
35612;SDS011;22054;51.646;7.078;2022-07-23T02:47:06;16.80;;;9.95;;
35612;SDS011;22054;51.646;7.078;2022-07-23T02:49:32;12.82;;;10.38;;
35612;SDS011;22054;51.646;7.078;2022-07-23T02:51:58;14.05;;;10.55;;
35612;SDS011;22054;51.646;7.078;2022-07-23T02:54:23;17.85;;;10.48;;
35612;SDS011;22054;51.646;7.078;2022-07-23T02:56:49;16.17;;;9.80;;
35612;SDS011;22054;51.646;7.078;2022-07-23T02:59:18;14.35;;;10.70;;
35612;SDS011;22054;51.646;7.078;2022-07-23T03:01:43;11.90;;;10.27;;
35612;SDS011;22054;51.646;7.078;2022-07-23T03:04:10;12.32;;;10.48;;
35612;SDS011;22054;51.646;7.078;2022-07-23T03:06:36;17.88;;;11.95;;
35612;SDS011;22054;51.646;7.078;2022-07-23T03:09:03;12.57;;;10.38;;
35612;SDS011;22054;51.646;7.078;2022-07-23T03:11:31;15.05;;;12.00;;
35612;SDS011;22054;51.646;7.078;2022-07-23T03:13:56;15.55;;;11.15;;
35612;SDS011;22054;51.646;7.078;2022-07-23T03:16:22;23.42;;;12.55;;
35612;SDS011;22054;51.646;7.078;2022-07-23T03:18:48;16.60;;;10.65;;
35612;SDS011;22054;51.646;7.078;2022-07-23T03:21:13;19.73;;;12.55;;
35612;SDS011;22054;51.646;7.078;2022-07-23T03:23:39;13.13;;;11.63;;
35612;SDS011;22054;51.646;7.078;2022-07-23T03:26:05;17.60;;;11.68;;
35612;SDS011;22054;51.646;7.078;2022-07-23T03:28:31;14.35;;;11.35;;
35612;SDS011;22054;51.646;7.078;2022-07-23T03:30:57;14.88;;;11.75;;
35612;SDS011;22054;51.646;7.078;2022-07-23T03:33:23;19.55;;;11.57;;
35612;SDS011;22054;51.646;7.078;2022-07-23T03:35:48;21.33;;;12.07;;
35612;SDS011;22054;51.646;7.078;2022-07-23T03:38:14;15.60;;;11.30;;
35612;SDS011;22054;51.646;7.078;2022-07-23T03:40:41;16.10;;;12.35;;
35612;SDS011;22054;51.646;7.078;2022-07-23T03:43:07;16.38;;;12.43;;
35612;SDS011;22054;51.646;7.078;2022-07-23T03:45:32;12.65;;;11.32;;
35612;SDS011;22054;51.646;7.078;2022-07-23T03:47:58;20.20;;;11.73;;
35612;SDS011;22054;51.646;7.078;2022-07-23T03:50:24;16.88;;;11.98;;
35612;SDS011;22054;51.646;7.078;2022-07-23T03:52:50;17.20;;;12.35;;
35612;SDS011;22054;51.646;7.078;2022-07-23T03:55:16;16.23;;;12.30;;
35612;SDS011;22054;51.646;7.078;2022-07-23T03:57:42;15.63;;;11.80;;
35612;SDS011;22054;51.646;7.078;2022-07-23T04:00:09;13.30;;;11.18;;
35612;SDS011;22054;51.646;7.078;2022-07-23T04:02:38;14.23;;;11.93;;
35612;SDS011;22054;51.646;7.078;2022-07-23T04:05:04;14.98;;;11.48;;
35612;SDS011;22054;51.646;7.078;2022-07-23T04:07:31;17.63;;;12.25;;
35612;SDS011;22054;51.646;7.078;2022-07-23T04:09:57;14.35;;;11.75;;
35612;SDS011;22054;51.646;7.078;2022-07-23T04:12:23;15.80;;;11.45;;
35612;SDS011;22054;51.646;7.078;2022-07-23T04:14:49;13.00;;;11.52;;
35612;SDS011;22054;51.646;7.078;2022-07-23T04:17:15;20.27;;;12.50;;
35612;SDS011;22054;51.646;7.078;2022-07-23T04:19:41;17.60;;;11.48;;
35612;SDS011;22054;51.646;7.078;2022-07-23T04:22:08;12.65;;;11.27;;
35612;SDS011;22054;51.646;7.078;2022-07-23T04:24:36;13.82;;;10.93;;
35612;SDS011;22054;51.646;7.078;2022-07-23T04:27:02;12.30;;;11.00;;
35612;SDS011;22054;51.646;7.078;2022-07-23T04:29:28;14.05;;;9.57;;
35612;SDS011;22054;51.646;7.078;2022-07-23T04:31:54;10.60;;;9.50;;
35612;SDS011;22054;51.646;7.078;2022-07-23T04:34:20;13.98;;;10.88;;
35612;SDS011;22054;51.646;7.078;2022-07-23T04:36:46;15.32;;;12.00;;
35612;SDS011;22054;51.646;7.078;2022-07-23T04:39:12;12.50;;;11.25;;
35612;SDS011;22054;51.646;7.078;2022-07-23T04:41:38;16.15;;;11.73;;
35612;SDS011;22054;51.646;7.078;2022-07-23T04:44:04;15.90;;;13.50;;
35612;SDS011;22054;51.646;7.078;2022-07-23T04:46:30;16.30;;;13.48;;
35612;SDS011;22054;51.646;7.078;2022-07-23T04:48:55;20.05;;;13.25;;
35612;SDS011;22054;51.646;7.078;2022-07-23T04:51:21;13.80;;;12.32;;
35612;SDS011;22054;51.646;7.078;2022-07-23T04:53:47;19.58;;;13.02;;
35612;SDS011;22054;51.646;7.078;2022-07-23T04:56:13;15.73;;;13.35;;
35612;SDS011;22054;51.646;7.078;2022-07-23T04:58:38;20.23;;;13.52;;
35612;SDS011;22054;51.646;7.078;2022-07-23T05:01:04;17.33;;;11.38;;
35612;SDS011;22054;51.646;7.078;2022-07-23T05:03:30;15.00;;;12.07;;
35612;SDS011;22054;51.646;7.078;2022-07-23T05:05:56;14.80;;;11.52;;
35612;SDS011;22054;51.646;7.078;2022-07-23T05:08:22;16.10;;;11.23;;
35612;SDS011;22054;51.646;7.078;2022-07-23T05:10:47;15.00;;;12.00;;
35612;SDS011;22054;51.646;7.078;2022-07-23T05:13:17;15.55;;;11.02;;
35612;SDS011;22054;51.646;7.078;2022-07-23T05:15:43;14.77;;;11.90;;
35612;SDS011;22054;51.646;7.078;2022-07-23T05:18:10;22.83;;;13.60;;
35612;SDS011;22054;51.646;7.078;2022-07-23T05:20:36;15.20;;;12.77;;
35612;SDS011;22054;51.646;7.078;2022-07-23T05:23:02;18.70;;;13.25;;
35612;SDS011;22054;51.646;7.078;2022-07-23T05:25:28;15.48;;;13.40;;
35612;SDS011;22054;51.646;7.078;2022-07-23T05:27:54;15.80;;;12.93;;
35612;SDS011;22054;51.646;7.078;2022-07-23T05:30:19;16.35;;;12.75;;
35612;SDS011;22054;51.646;7.078;2022-07-23T05:32:45;18.48;;;13.98;;
35612;SDS011;22054;51.646;7.078;2022-07-23T05:35:11;18.02;;;13.40;;
35612;SDS011;22054;51.646;7.078;2022-07-23T05:37:37;18.80;;;15.23;;
35612;SDS011;22054;51.646;7.078;2022-07-23T05:40:06;22.73;;;13.82;;
35612;SDS011;22054;51.646;7.078;2022-07-23T05:42:35;16.27;;;13.88;;
35612;SDS011;22054;51.646;7.078;2022-07-23T05:45:02;19.27;;;13.27;;
35612;SDS011;22054;51.646;7.078;2022-07-23T05:47:28;22.27;;;14.57;;
35612;SDS011;22054;51.646;7.078;2022-07-23T05:50:06;17.10;;;13.90;;
35612;SDS011;22054;51.646;7.078;2022-07-23T05:52:32;23.00;;;14.90;;
35612;SDS011;22054;51.646;7.078;2022-07-23T05:54:58;19.30;;;14.43;;
35612;SDS011;22054;51.646;7.078;2022-07-23T05:57:23;15.52;;;13.38;;
35612;SDS011;22054;51.646;7.078;2022-07-23T05:59:49;17.15;;;12.20;;
35612;SDS011;22054;51.646;7.078;2022-07-23T06:02:15;16.38;;;12.05;;
35612;SDS011;22054;51.646;7.078;2022-07-23T06:04:41;17.10;;;13.02;;
35612;SDS011;22054;51.646;7.078;2022-07-23T06:07:07;16.73;;;11.77;;
35612;SDS011;22054;51.646;7.078;2022-07-23T06:09:32;13.45;;;11.30;;
35612;SDS011;22054;51.646;7.078;2022-07-23T06:11:58;16.00;;;12.32;;
35612;SDS011;22054;51.646;7.078;2022-07-23T06:14:24;17.58;;;11.82;;
35612;SDS011;22054;51.646;7.078;2022-07-23T06:16:49;15.35;;;11.85;;
35612;SDS011;22054;51.646;7.078;2022-07-23T06:19:15;16.00;;;11.85;;
35612;SDS011;22054;51.646;7.078;2022-07-23T06:21:41;12.52;;;10.85;;
35612;SDS011;22054;51.646;7.078;2022-07-23T06:24:07;14.00;;;11.45;;
35612;SDS011;22054;51.646;7.078;2022-07-23T06:26:32;12.55;;;10.90;;
35612;SDS011;22054;51.646;7.078;2022-07-23T06:28:58;14.30;;;10.82;;
35612;SDS011;22054;51.646;7.078;2022-07-23T06:31:24;19.38;;;9.15;;
35612;SDS011;22054;51.646;7.078;2022-07-23T06:33:49;14.65;;;9.85;;
35612;SDS011;22054;51.646;7.078;2022-07-23T06:36:15;14.95;;;11.05;;
35612;SDS011;22054;51.646;7.078;2022-07-23T06:38:41;13.43;;;10.55;;
35612;SDS011;22054;51.646;7.078;2022-07-23T06:41:07;17.10;;;11.43;;
35612;SDS011;22054;51.646;7.078;2022-07-23T06:43:32;14.50;;;11.55;;
35612;SDS011;22054;51.646;7.078;2022-07-23T06:45:58;14.60;;;12.15;;
35612;SDS011;22054;51.646;7.078;2022-07-23T06:48:24;20.67;;;12.02;;
35612;SDS011;22054;51.646;7.078;2022-07-23T06:50:50;16.33;;;10.90;;
35612;SDS011;22054;51.646;7.078;2022-07-23T06:53:17;13.85;;;11.18;;
35612;SDS011;22054;51.646;7.078;2022-07-23T06:55:43;16.27;;;10.15;;
35612;SDS011;22054;51.646;7.078;2022-07-23T06:58:08;18.00;;;11.98;;
35612;SDS011;22054;51.646;7.078;2022-07-23T07:00:35;12.93;;;10.57;;
35612;SDS011;22054;51.646;7.078;2022-07-23T07:03:01;12.60;;;10.90;;
35612;SDS011;22054;51.646;7.078;2022-07-23T07:05:27;13.23;;;11.25;;
35612;SDS011;22054;51.646;7.078;2022-07-23T07:07:54;15.25;;;11.10;;
35612;SDS011;22054;51.646;7.078;2022-07-23T07:10:20;16.40;;;10.93;;
35612;SDS011;22054;51.646;7.078;2022-07-23T07:12:46;10.60;;;9.57;;
35612;SDS011;22054;51.646;7.078;2022-07-23T07:15:12;13.10;;;11.02;;
35612;SDS011;22054;51.646;7.078;2022-07-23T07:17:37;13.13;;;8.90;;
35612;SDS011;22054;51.646;7.078;2022-07-23T07:20:04;13.93;;;9.02;;
35612;SDS011;22054;51.646;7.078;2022-07-23T07:22:31;14.95;;;9.35;;
35612;SDS011;22054;51.646;7.078;2022-07-23T07:24:56;12.52;;;8.07;;
35612;SDS011;22054;51.646;7.078;2022-07-23T07:27:22;10.15;;;8.65;;
35612;SDS011;22054;51.646;7.078;2022-07-23T07:29:48;10.00;;;8.00;;
35612;SDS011;22054;51.646;7.078;2022-07-23T07:32:14;12.52;;;8.40;;
35612;SDS011;22054;51.646;7.078;2022-07-23T07:34:39;11.95;;;8.80;;
35612;SDS011;22054;51.646;7.078;2022-07-23T07:37:05;8.68;;;7.78;;
35612;SDS011;22054;51.646;7.078;2022-07-23T07:39:31;10.82;;;7.88;;
35612;SDS011;22054;51.646;7.078;2022-07-23T07:41:57;8.88;;;7.47;;
35612;SDS011;22054;51.646;7.078;2022-07-23T07:44:22;9.88;;;7.40;;
35612;SDS011;22054;51.646;7.078;2022-07-23T07:46:48;15.05;;;8.25;;
35612;SDS011;22054;51.646;7.078;2022-07-23T07:49:14;10.35;;;7.30;;
35612;SDS011;22054;51.646;7.078;2022-07-23T07:51:42;12.73;;;7.38;;
35612;SDS011;22054;51.646;7.078;2022-07-23T07:54:07;8.80;;;6.97;;
35612;SDS011;22054;51.646;7.078;2022-07-23T07:56:33;8.45;;;6.93;;
35612;SDS011;22054;51.646;7.078;2022-07-23T07:58:59;8.30;;;6.40;;
35612;SDS011;22054;51.646;7.078;2022-07-23T08:01:26;8.80;;;6.45;;
35612;SDS011;22054;51.646;7.078;2022-07-23T08:03:51;9.50;;;6.40;;
35612;SDS011;22054;51.646;7.078;2022-07-23T08:06:17;9.73;;;6.18;;
35612;SDS011;22054;51.646;7.078;2022-07-23T08:08:43;12.85;;;6.88;;
35612;SDS011;22054;51.646;7.078;2022-07-23T08:11:08;8.32;;;5.65;;
35612;SDS011;22054;51.646;7.078;2022-07-23T08:13:34;7.18;;;5.32;;
35612;SDS011;22054;51.646;7.078;2022-07-23T08:16:00;10.60;;;5.32;;
35612;SDS011;22054;51.646;7.078;2022-07-23T08:18:26;6.82;;;5.28;;
35612;SDS011;22054;51.646;7.078;2022-07-23T08:20:52;8.45;;;5.65;;
35612;SDS011;22054;51.646;7.078;2022-07-23T08:23:17;9.10;;;6.22;;
35612;SDS011;22054;51.646;7.078;2022-07-23T08:25:44;8.90;;;6.10;;
35612;SDS011;22054;51.646;7.078;2022-07-23T08:28:11;5.80;;;5.30;;
35612;SDS011;22054;51.646;7.078;2022-07-23T08:30:39;11.05;;;4.57;;
35612;SDS011;22054;51.646;7.078;2022-07-23T08:33:10;6.30;;;5.15;;
35612;SDS011;22054;51.646;7.078;2022-07-23T08:35:39;7.55;;;4.43;;
35612;SDS011;22054;51.646;7.078;2022-07-23T08:38:11;9.27;;;4.60;;
35612;SDS011;22054;51.646;7.078;2022-07-23T08:40:47;6.78;;;3.83;;
35612;SDS011;22054;51.646;7.078;2022-07-23T08:43:16;5.72;;;3.88;;
35612;SDS011;22054;51.646;7.078;2022-07-23T08:45:48;4.78;;;3.90;;
35612;SDS011;22054;51.646;7.078;2022-07-23T08:48:17;6.68;;;3.42;;
35612;SDS011;22054;51.646;7.078;2022-07-23T08:50:47;9.88;;;4.07;;
35612;SDS011;22054;51.646;7.078;2022-07-23T08:53:19;6.72;;;4.28;;
35612;SDS011;22054;51.646;7.078;2022-07-23T08:55:47;6.55;;;4.80;;
35612;SDS011;22054;51.646;7.078;2022-07-23T08:58:18;6.63;;;4.10;;
35612;SDS011;22054;51.646;7.078;2022-07-23T09:00:45;7.75;;;3.85;;
35612;SDS011;22054;51.646;7.078;2022-07-23T09:03:14;5.53;;;3.83;;
35612;SDS011;22054;51.646;7.078;2022-07-23T09:05:56;8.05;;;4.78;;
35612;SDS011;22054;51.646;7.078;2022-07-23T09:08:23;7.10;;;4.70;;
35612;SDS011;22054;51.646;7.078;2022-07-23T09:11:12;7.13;;;4.75;;
35612;SDS011;22054;51.646;7.078;2022-07-23T09:16:30;8.15;;;4.45;;
35612;SDS011;22054;51.646;7.078;2022-07-23T09:18:57;7.00;;;4.00;;
35612;SDS011;22054;51.646;7.078;2022-07-23T09:21:27;8.05;;;4.55;;
35612;SDS011;22054;51.646;7.078;2022-07-23T09:24:00;7.20;;;4.63;;
35612;SDS011;22054;51.646;7.078;2022-07-23T09:26:49;5.70;;;4.43;;
35612;SDS011;22054;51.646;7.078;2022-07-23T09:29:19;10.07;;;5.00;;
35612;SDS011;22054;51.646;7.078;2022-07-23T09:31:54;5.60;;;4.53;;
35612;SDS011;22054;51.646;7.078;2022-07-23T09:34:29;6.55;;;3.35;;
35612;SDS011;22054;51.646;7.078;2022-07-23T09:37:10;5.07;;;3.22;;
35612;SDS011;22054;51.646;7.078;2022-07-23T09:39:45;5.13;;;3.33;;
35612;SDS011;22054;51.646;7.078;2022-07-23T09:42:14;5.38;;;3.95;;
35612;SDS011;22054;51.646;7.078;2022-07-23T09:44:46;5.60;;;3.87;;
35612;SDS011;22054;51.646;7.078;2022-07-23T09:47:14;4.78;;;3.50;;
35612;SDS011;22054;51.646;7.078;2022-07-23T09:49:41;6.07;;;4.70;;
35612;SDS011;22054;51.646;7.078;2022-07-23T09:52:34;7.82;;;3.90;;
35612;SDS011;22054;51.646;7.078;2022-07-23T09:55:14;6.40;;;3.72;;
35612;SDS011;22054;51.646;7.078;2022-07-23T09:57:44;6.38;;;3.72;;
35612;SDS011;22054;51.646;7.078;2022-07-23T10:00:21;5.07;;;2.80;;
35612;SDS011;22054;51.646;7.078;2022-07-23T10:02:48;4.47;;;2.92;;
35612;SDS011;22054;51.646;7.078;2022-07-23T10:05:15;4.15;;;2.88;;
35612;SDS011;22054;51.646;7.078;2022-07-23T10:07:41;3.30;;;2.75;;
35612;SDS011;22054;51.646;7.078;2022-07-23T10:10:08;4.30;;;2.72;;
35612;SDS011;22054;51.646;7.078;2022-07-23T10:12:35;7.95;;;3.13;;
35612;SDS011;22054;51.646;7.078;2022-07-23T10:15:01;6.68;;;5.53;;
35612;SDS011;22054;51.646;7.078;2022-07-23T10:17:29;7.63;;;6.72;;
35612;SDS011;22054;51.646;7.078;2022-07-23T10:19:55;8.82;;;7.68;;
35612;SDS011;22054;51.646;7.078;2022-07-23T10:22:29;7.60;;;5.88;;
35612;SDS011;22054;51.646;7.078;2022-07-23T10:28:30;3.97;;;2.10;;
35612;SDS011;22054;51.646;7.078;2022-07-23T10:31:26;3.78;;;1.63;;
35612;SDS011;22054;51.646;7.078;2022-07-23T10:36:46;4.70;;;1.40;;
35612;SDS011;22054;51.646;7.078;2022-07-23T10:39:27;3.42;;;1.50;;
35612;SDS011;22054;51.646;7.078;2022-07-23T10:44:58;6.47;;;5.90;;
35612;SDS011;22054;51.646;7.078;2022-07-23T10:47:28;6.40;;;5.90;;
35612;SDS011;22054;51.646;7.078;2022-07-23T10:50:25;5.80;;;5.50;;
35612;SDS011;22054;51.646;7.078;2022-07-23T10:57:57;6.18;;;5.72;;
35612;SDS011;22054;51.646;7.078;2022-07-23T11:00:24;6.50;;;5.95;;
35612;SDS011;22054;51.646;7.078;2022-07-23T11:02:52;8.90;;;6.40;;
35612;SDS011;22054;51.646;7.078;2022-07-23T11:05:21;7.13;;;6.22;;
35612;SDS011;22054;51.646;7.078;2022-07-23T11:26:45;6.28;;;5.88;;
35612;SDS011;22054;51.646;7.078;2022-07-23T11:32:04;6.72;;;5.90;;
35612;SDS011;22054;51.646;7.078;2022-07-23T11:34:46;6.78;;;6.18;;
35612;SDS011;22054;51.646;7.078;2022-07-23T11:37:31;6.60;;;6.03;;
35612;SDS011;22054;51.646;7.078;2022-07-23T11:39:59;6.90;;;6.40;;
35612;SDS011;22054;51.646;7.078;2022-07-23T11:42:28;7.32;;;6.78;;
35612;SDS011;22054;51.646;7.078;2022-07-23T11:44:53;6.75;;;6.25;;
35612;SDS011;22054;51.646;7.078;2022-07-23T11:47:23;6.68;;;6.18;;
35612;SDS011;22054;51.646;7.078;2022-07-23T11:49:52;6.78;;;6.38;;
35612;SDS011;22054;51.646;7.078;2022-07-23T11:52:20;6.45;;;6.07;;
35612;SDS011;22054;51.646;7.078;2022-07-23T11:54:54;6.55;;;6.13;;
35612;SDS011;22054;51.646;7.078;2022-07-23T11:57:32;6.22;;;5.82;;
35612;SDS011;22054;51.646;7.078;2022-07-23T12:02:46;5.93;;;5.57;;
35612;SDS011;22054;51.646;7.078;2022-07-23T12:05:18;6.35;;;5.85;;
35612;SDS011;22054;51.646;7.078;2022-07-23T12:07:49;6.63;;;6.05;;
35612;SDS011;22054;51.646;7.078;2022-07-23T12:10:23;6.30;;;5.70;;
35612;SDS011;22054;51.646;7.078;2022-07-23T12:12:59;6.07;;;5.68;;
35612;SDS011;22054;51.646;7.078;2022-07-23T12:18:17;6.00;;;5.70;;
35612;SDS011;22054;51.646;7.078;2022-07-23T12:20:47;6.35;;;5.95;;
35612;SDS011;22054;51.646;7.078;2022-07-23T12:23:19;6.05;;;5.75;;
35612;SDS011;22054;51.646;7.078;2022-07-23T12:30:42;6.30;;;6.00;;
35612;SDS011;22054;51.646;7.078;2022-07-23T12:33:11;6.57;;;6.10;;
35612;SDS011;22054;51.646;7.078;2022-07-23T12:35:45;7.25;;;6.68;;
35612;SDS011;22054;51.646;7.078;2022-07-23T12:38:13;6.70;;;6.20;;
35612;SDS011;22054;51.646;7.078;2022-07-23T12:40:44;5.68;;;5.35;;
35612;SDS011;22054;51.646;7.078;2022-07-23T12:46:15;6.45;;;6.05;;
35612;SDS011;22054;51.646;7.078;2022-07-23T12:51:16;6.57;;;6.07;;
35612;SDS011;22054;51.646;7.078;2022-07-23T12:53:46;6.28;;;5.88;;
35612;SDS011;22054;51.646;7.078;2022-07-23T12:56:14;6.82;;;6.30;;
35612;SDS011;22054;51.646;7.078;2022-07-23T12:58:48;7.38;;;6.60;;
35612;SDS011;22054;51.646;7.078;2022-07-23T13:03:58;7.07;;;6.50;;
35612;SDS011;22054;51.646;7.078;2022-07-23T13:06:30;6.65;;;6.18;;
35612;SDS011;22054;51.646;7.078;2022-07-23T13:09:11;6.97;;;6.25;;
35612;SDS011;22054;51.646;7.078;2022-07-23T13:11:43;6.88;;;6.38;;
35612;SDS011;22054;51.646;7.078;2022-07-23T13:14:11;6.82;;;6.40;;
35612;SDS011;22054;51.646;7.078;2022-07-23T13:16:39;7.05;;;6.43;;
35612;SDS011;22054;51.646;7.078;2022-07-23T13:19:06;6.60;;;6.20;;
35612;SDS011;22054;51.646;7.078;2022-07-23T13:21:32;6.70;;;6.30;;
35612;SDS011;22054;51.646;7.078;2022-07-23T13:23:58;6.97;;;6.13;;
35612;SDS011;22054;51.646;7.078;2022-07-23T13:26:24;7.00;;;6.40;;
35612;SDS011;22054;51.646;7.078;2022-07-23T13:28:51;7.05;;;6.45;;
35612;SDS011;22054;51.646;7.078;2022-07-23T13:31:17;7.07;;;6.65;;
35612;SDS011;22054;51.646;7.078;2022-07-23T13:33:43;6.75;;;6.25;;
35612;SDS011;22054;51.646;7.078;2022-07-23T13:36:09;6.57;;;6.20;;
35612;SDS011;22054;51.646;7.078;2022-07-23T13:38:36;6.10;;;5.70;;
35612;SDS011;22054;51.646;7.078;2022-07-23T13:41:02;6.18;;;5.78;;
35612;SDS011;22054;51.646;7.078;2022-07-23T13:43:28;6.47;;;5.97;;
35612;SDS011;22054;51.646;7.078;2022-07-23T13:45:54;6.50;;;6.10;;
35612;SDS011;22054;51.646;7.078;2022-07-23T13:48:21;6.30;;;5.90;;
35612;SDS011;22054;51.646;7.078;2022-07-23T13:50:47;6.57;;;6.00;;
35612;SDS011;22054;51.646;7.078;2022-07-23T13:53:14;6.78;;;6.25;;
35612;SDS011;22054;51.646;7.078;2022-07-23T13:55:43;6.65;;;6.15;;
35612;SDS011;22054;51.646;7.078;2022-07-23T13:58:10;6.38;;;5.95;;
35612;SDS011;22054;51.646;7.078;2022-07-23T14:00:38;6.70;;;6.20;;
35612;SDS011;22054;51.646;7.078;2022-07-23T14:03:09;7.10;;;6.50;;
35612;SDS011;22054;51.646;7.078;2022-07-23T14:05:34;7.45;;;6.78;;
35612;SDS011;22054;51.646;7.078;2022-07-23T14:08:01;6.40;;;5.90;;
35612;SDS011;22054;51.646;7.078;2022-07-23T14:10:28;6.60;;;6.20;;
35612;SDS011;22054;51.646;7.078;2022-07-23T14:12:53;6.63;;;6.22;;
35612;SDS011;22054;51.646;7.078;2022-07-23T14:15:21;6.97;;;6.38;;
35612;SDS011;22054;51.646;7.078;2022-07-23T14:17:49;7.40;;;6.70;;
35612;SDS011;22054;51.646;7.078;2022-07-23T14:20:15;6.60;;;6.20;;
35612;SDS011;22054;51.646;7.078;2022-07-23T14:22:41;6.95;;;6.55;;
35612;SDS011;22054;51.646;7.078;2022-07-23T14:25:07;5.97;;;5.68;;
35612;SDS011;22054;51.646;7.078;2022-07-23T14:27:34;6.40;;;5.90;;
35612;SDS011;22054;51.646;7.078;2022-07-23T14:30:02;6.10;;;5.80;;
35612;SDS011;22054;51.646;7.078;2022-07-23T14:32:32;6.50;;;6.00;;
35612;SDS011;22054;51.646;7.078;2022-07-23T14:34:58;6.93;;;6.45;;
35612;SDS011;22054;51.646;7.078;2022-07-23T14:37:24;6.75;;;6.15;;
35612;SDS011;22054;51.646;7.078;2022-07-23T14:39:50;6.85;;;6.25;;
35612;SDS011;22054;51.646;7.078;2022-07-23T14:42:16;7.05;;;6.55;;
35612;SDS011;22054;51.646;7.078;2022-07-23T14:44:42;7.22;;;6.82;;
35612;SDS011;22054;51.646;7.078;2022-07-23T14:47:08;7.18;;;6.72;;
35612;SDS011;22054;51.646;7.078;2022-07-23T14:49:35;7.55;;;6.85;;
35612;SDS011;22054;51.646;7.078;2022-07-23T14:52:01;7.10;;;6.70;;
35612;SDS011;22054;51.646;7.078;2022-07-23T14:54:28;6.88;;;6.47;;
35612;SDS011;22054;51.646;7.078;2022-07-23T14:56:54;7.10;;;6.70;;
35612;SDS011;22054;51.646;7.078;2022-07-23T14:59:22;7.27;;;6.77;;
35612;SDS011;22054;51.646;7.078;2022-07-23T15:01:49;6.50;;;6.10;;
35612;SDS011;22054;51.646;7.078;2022-07-23T15:04:15;7.10;;;6.53;;
35612;SDS011;22054;51.646;7.078;2022-07-23T15:06:41;7.18;;;6.70;;
35612;SDS011;22054;51.646;7.078;2022-07-23T15:09:07;7.45;;;6.72;;
35612;SDS011;22054;51.646;7.078;2022-07-23T15:11:33;7.22;;;6.55;;
35612;SDS011;22054;51.646;7.078;2022-07-23T15:14:01;7.10;;;6.60;;
35612;SDS011;22054;51.646;7.078;2022-07-23T15:16:28;6.80;;;6.38;;
35612;SDS011;22054;51.646;7.078;2022-07-23T15:18:54;6.30;;;6.00;;
35612;SDS011;22054;51.646;7.078;2022-07-23T15:21:20;6.93;;;6.43;;
35612;SDS011;22054;51.646;7.078;2022-07-23T15:23:46;7.53;;;6.80;;
35612;SDS011;22054;51.646;7.078;2022-07-23T15:26:12;7.22;;;6.78;;
35612;SDS011;22054;51.646;7.078;2022-07-23T15:28:40;7.05;;;6.57;;
35612;SDS011;22054;51.646;7.078;2022-07-23T15:31:06;7.07;;;6.40;;
35612;SDS011;22054;51.646;7.078;2022-07-23T15:33:32;6.38;;;6.07;;
35612;SDS011;22054;51.646;7.078;2022-07-23T15:35:58;6.88;;;6.40;;